sensor_id;sensor_type;location;lat;lon;timestamp;P1;durP1;ratioP1;P2;durP2;ratioP2
43226;SDS011;28839;52.404;9.808;2022-11-15T00:03:52;30.30;;;19.73;;
43226;SDS011;28839;52.404;9.808;2022-11-15T00:10:54;26.12;;;17.95;;
43226;SDS011;28839;52.404;9.808;2022-11-15T00:17:49;22.65;;;16.17;;
43226;SDS011;28839;52.404;9.808;2022-11-15T00:24:43;24.70;;;15.87;;
43226;SDS011;28839;52.404;9.808;2022-11-15T00:31:38;21.00;;;15.48;;
43226;SDS011;28839;52.404;9.808;2022-11-15T00:38:32;24.23;;;15.00;;
43226;SDS011;28839;52.404;9.808;2022-11-15T00:45:29;22.35;;;15.38;;
43226;SDS011;28839;52.404;9.808;2022-11-15T00:52:24;22.17;;;16.17;;
43226;SDS011;28839;52.404;9.808;2022-11-15T00:59:18;24.35;;;17.12;;
43226;SDS011;28839;52.404;9.808;2022-11-15T01:06:12;23.45;;;15.32;;
43226;SDS011;28839;52.404;9.808;2022-11-15T01:13:07;23.75;;;16.23;;
43226;SDS011;28839;52.404;9.808;2022-11-15T01:20:04;26.52;;;15.10;;
43226;SDS011;28839;52.404;9.808;2022-11-15T01:26:58;20.02;;;15.25;;
43226;SDS011;28839;52.404;9.808;2022-11-15T01:33:53;20.80;;;15.80;;
43226;SDS011;28839;52.404;9.808;2022-11-15T01:40:47;27.98;;;15.65;;
43226;SDS011;28839;52.404;9.808;2022-11-15T01:47:42;23.45;;;15.93;;
43226;SDS011;28839;52.404;9.808;2022-11-15T01:54:41;22.08;;;16.17;;
43226;SDS011;28839;52.404;9.808;2022-11-15T02:01:35;25.15;;;16.80;;
43226;SDS011;28839;52.404;9.808;2022-11-15T02:08:30;22.45;;;15.40;;
43226;SDS011;28839;52.404;9.808;2022-11-15T02:15:26;24.05;;;15.88;;
43226;SDS011;28839;52.404;9.808;2022-11-15T02:22:29;25.70;;;16.67;;
43226;SDS011;28839;52.404;9.808;2022-11-15T02:29:34;23.92;;;16.50;;
43226;SDS011;28839;52.404;9.808;2022-11-15T02:36:43;23.55;;;15.68;;
43226;SDS011;28839;52.404;9.808;2022-11-15T02:43:43;22.70;;;16.25;;
43226;SDS011;28839;52.404;9.808;2022-11-15T02:50:50;24.50;;;16.80;;
43226;SDS011;28839;52.404;9.808;2022-11-15T02:57:49;29.20;;;17.75;;
43226;SDS011;28839;52.404;9.808;2022-11-15T03:04:51;22.13;;;14.97;;
43226;SDS011;28839;52.404;9.808;2022-11-15T03:11:48;24.50;;;16.05;;
43226;SDS011;28839;52.404;9.808;2022-11-15T03:18:52;23.33;;;15.60;;
43226;SDS011;28839;52.404;9.808;2022-11-15T03:25:51;20.60;;;14.43;;
43226;SDS011;28839;52.404;9.808;2022-11-15T03:32:49;22.87;;;14.25;;
43226;SDS011;28839;52.404;9.808;2022-11-15T03:39:47;19.83;;;15.05;;
43226;SDS011;28839;52.404;9.808;2022-11-15T03:46:42;20.50;;;14.63;;
43226;SDS011;28839;52.404;9.808;2022-11-15T03:53:43;22.23;;;14.13;;
43226;SDS011;28839;52.404;9.808;2022-11-15T04:00:38;21.45;;;14.38;;
43226;SDS011;28839;52.404;9.808;2022-11-15T04:07:32;30.55;;;15.73;;
43226;SDS011;28839;52.404;9.808;2022-11-15T04:14:26;23.73;;;15.53;;
43226;SDS011;28839;52.404;9.808;2022-11-15T04:21:21;19.37;;;14.05;;
43226;SDS011;28839;52.404;9.808;2022-11-15T04:28:33;25.23;;;15.85;;
43226;SDS011;28839;52.404;9.808;2022-11-15T04:35:26;25.27;;;15.95;;
43226;SDS011;28839;52.404;9.808;2022-11-15T04:42:22;20.70;;;14.68;;
43226;SDS011;28839;52.404;9.808;2022-11-15T04:49:15;23.40;;;14.25;;
43226;SDS011;28839;52.404;9.808;2022-11-15T04:56:09;14.93;;;11.80;;
43226;SDS011;28839;52.404;9.808;2022-11-15T05:03:05;17.87;;;10.47;;
43226;SDS011;28839;52.404;9.808;2022-11-15T05:10:16;13.98;;;9.57;;
43226;SDS011;28839;52.404;9.808;2022-11-15T05:17:10;18.52;;;10.23;;
43226;SDS011;28839;52.404;9.808;2022-11-15T05:24:05;14.60;;;9.10;;
43226;SDS011;28839;52.404;9.808;2022-11-15T05:31:00;15.55;;;10.20;;
43226;SDS011;28839;52.404;9.808;2022-11-15T05:37:55;13.73;;;9.52;;
43226;SDS011;28839;52.404;9.808;2022-11-15T05:44:50;13.35;;;8.73;;
43226;SDS011;28839;52.404;9.808;2022-11-15T05:51:44;15.55;;;8.00;;
43226;SDS011;28839;52.404;9.808;2022-11-15T05:58:41;16.62;;;7.85;;
43226;SDS011;28839;52.404;9.808;2022-11-15T06:05:37;13.82;;;7.57;;
43226;SDS011;28839;52.404;9.808;2022-11-15T06:12:31;9.68;;;7.18;;
43226;SDS011;28839;52.404;9.808;2022-11-15T06:19:25;15.27;;;7.12;;
43226;SDS011;28839;52.404;9.808;2022-11-15T06:26:20;10.38;;;7.12;;
43226;SDS011;28839;52.404;9.808;2022-11-15T06:33:14;11.63;;;7.32;;
43226;SDS011;28839;52.404;9.808;2022-11-15T06:40:08;8.88;;;6.85;;
43226;SDS011;28839;52.404;9.808;2022-11-15T06:47:05;9.45;;;6.78;;
43226;SDS011;28839;52.404;9.808;2022-11-15T06:53:59;12.70;;;7.62;;
43226;SDS011;28839;52.404;9.808;2022-11-15T07:00:52;9.37;;;6.23;;
43226;SDS011;28839;52.404;9.808;2022-11-15T07:07:52;9.93;;;7.07;;
43226;SDS011;28839;52.404;9.808;2022-11-15T07:14:46;8.55;;;6.47;;
43226;SDS011;28839;52.404;9.808;2022-11-15T07:21:40;13.62;;;6.57;;
43226;SDS011;28839;52.404;9.808;2022-11-15T07:28:35;8.48;;;6.37;;
43226;SDS011;28839;52.404;9.808;2022-11-15T07:35:29;8.02;;;5.57;;
43226;SDS011;28839;52.404;9.808;2022-11-15T07:42:23;8.60;;;5.97;;
43226;SDS011;28839;52.404;9.808;2022-11-15T07:49:36;10.27;;;6.30;;
43226;SDS011;28839;52.404;9.808;2022-11-15T07:56:30;8.77;;;6.55;;
43226;SDS011;28839;52.404;9.808;2022-11-15T08:03:24;13.25;;;6.25;;
43226;SDS011;28839;52.404;9.808;2022-11-15T08:10:19;10.02;;;6.87;;
43226;SDS011;28839;52.404;9.808;2022-11-15T08:17:13;9.75;;;6.80;;
43226;SDS011;28839;52.404;9.808;2022-11-15T08:24:08;8.20;;;6.60;;
43226;SDS011;28839;52.404;9.808;2022-11-15T08:31:04;8.07;;;6.12;;
43226;SDS011;28839;52.404;9.808;2022-11-15T08:37:58;9.18;;;6.60;;
43226;SDS011;28839;52.404;9.808;2022-11-15T08:44:52;6.35;;;5.47;;
43226;SDS011;28839;52.404;9.808;2022-11-15T08:51:47;8.50;;;5.60;;
43226;SDS011;28839;52.404;9.808;2022-11-15T08:58:41;6.30;;;5.25;;
43226;SDS011;28839;52.404;9.808;2022-11-15T09:05:35;6.97;;;5.62;;
43226;SDS011;28839;52.404;9.808;2022-11-15T09:12:31;5.62;;;4.80;;
43226;SDS011;28839;52.404;9.808;2022-11-15T09:19:25;7.62;;;4.82;;
43226;SDS011;28839;52.404;9.808;2022-11-15T09:26:19;4.87;;;4.33;;
43226;SDS011;28839;52.404;9.808;2022-11-15T09:33:14;5.67;;;4.30;;
43226;SDS011;28839;52.404;9.808;2022-11-15T09:40:08;6.95;;;3.62;;
43226;SDS011;28839;52.404;9.808;2022-11-15T09:47:06;5.12;;;3.75;;
43226;SDS011;28839;52.404;9.808;2022-11-15T09:54:20;7.68;;;4.37;;
43226;SDS011;28839;52.404;9.808;2022-11-15T10:01:20;5.23;;;4.27;;
43226;SDS011;28839;52.404;9.808;2022-11-15T10:08:28;8.65;;;5.20;;
43226;SDS011;28839;52.404;9.808;2022-11-15T10:15:30;6.10;;;4.67;;
43226;SDS011;28839;52.404;9.808;2022-11-15T10:22:26;5.20;;;3.95;;
43226;SDS011;28839;52.404;9.808;2022-11-15T10:29:22;5.28;;;3.92;;
43226;SDS011;28839;52.404;9.808;2022-11-15T10:36:22;4.32;;;3.67;;
43226;SDS011;28839;52.404;9.808;2022-11-15T10:43:18;5.78;;;3.42;;
43226;SDS011;28839;52.404;9.808;2022-11-15T10:50:25;6.37;;;3.40;;
43226;SDS011;28839;52.404;9.808;2022-11-15T10:57:22;9.55;;;3.42;;
43226;SDS011;28839;52.404;9.808;2022-11-15T11:04:19;5.93;;;3.20;;
43226;SDS011;28839;52.404;9.808;2022-11-15T11:11:13;6.28;;;3.30;;
43226;SDS011;28839;52.404;9.808;2022-11-15T11:18:10;4.13;;;3.30;;
43226;SDS011;28839;52.404;9.808;2022-11-15T11:25:15;4.85;;;2.95;;
43226;SDS011;28839;52.404;9.808;2022-11-15T11:32:23;4.50;;;3.22;;
43226;SDS011;28839;52.404;9.808;2022-11-15T11:39:30;6.55;;;3.80;;
43226;SDS011;28839;52.404;9.808;2022-11-15T11:46:38;8.48;;;3.65;;
43226;SDS011;28839;52.404;9.808;2022-11-15T11:53:41;4.97;;;3.55;;
43226;SDS011;28839;52.404;9.808;2022-11-15T12:00:43;7.87;;;4.22;;
43226;SDS011;28839;52.404;9.808;2022-11-15T12:07:40;7.97;;;3.40;;
43226;SDS011;28839;52.404;9.808;2022-11-15T12:14:38;5.80;;;3.50;;
43226;SDS011;28839;52.404;9.808;2022-11-15T12:21:41;3.97;;;3.58;;
43226;SDS011;28839;52.404;9.808;2022-11-15T12:28:41;4.37;;;3.25;;
43226;SDS011;28839;52.404;9.808;2022-11-15T12:35:40;5.45;;;3.12;;
43226;SDS011;28839;52.404;9.808;2022-11-15T12:42:39;7.43;;;3.28;;
43226;SDS011;28839;52.404;9.808;2022-11-15T12:56:48;6.32;;;3.45;;
43226;SDS011;28839;52.404;9.808;2022-11-15T13:04:25;5.22;;;3.03;;
43226;SDS011;28839;52.404;9.808;2022-11-15T13:18:44;5.12;;;3.67;;
43226;SDS011;28839;52.404;9.808;2022-11-15T13:33:08;5.82;;;3.80;;
43226;SDS011;28839;52.404;9.808;2022-11-15T13:40:10;7.40;;;4.10;;
43226;SDS011;28839;52.404;9.808;2022-11-15T13:47:15;6.10;;;3.47;;
43226;SDS011;28839;52.404;9.808;2022-11-15T13:54:16;6.03;;;4.03;;
43226;SDS011;28839;52.404;9.808;2022-11-15T14:01:14;8.52;;;4.00;;
43226;SDS011;28839;52.404;9.808;2022-11-15T14:08:21;6.03;;;3.47;;
43226;SDS011;28839;52.404;9.808;2022-11-15T14:15:24;4.65;;;3.40;;
43226;SDS011;28839;52.404;9.808;2022-11-15T14:22:22;7.07;;;3.35;;
43226;SDS011;28839;52.404;9.808;2022-11-15T14:29:25;4.43;;;3.28;;
43226;SDS011;28839;52.404;9.808;2022-11-15T14:36:20;6.20;;;3.95;;
43226;SDS011;28839;52.404;9.808;2022-11-15T14:43:14;8.23;;;4.53;;
43226;SDS011;28839;52.404;9.808;2022-11-15T14:50:12;4.57;;;3.40;;
43226;SDS011;28839;52.404;9.808;2022-11-15T14:57:06;4.53;;;3.72;;
43226;SDS011;28839;52.404;9.808;2022-11-15T15:04:00;6.37;;;4.17;;
43226;SDS011;28839;52.404;9.808;2022-11-15T15:10:55;5.50;;;3.30;;
43226;SDS011;28839;52.404;9.808;2022-11-15T15:17:49;5.47;;;3.80;;
43226;SDS011;28839;52.404;9.808;2022-11-15T15:24:43;7.37;;;4.57;;
43226;SDS011;28839;52.404;9.808;2022-11-15T15:31:39;5.15;;;3.92;;
43226;SDS011;28839;52.404;9.808;2022-11-15T15:38:33;5.60;;;3.97;;
43226;SDS011;28839;52.404;9.808;2022-11-15T15:45:27;3.97;;;3.57;;
43226;SDS011;28839;52.404;9.808;2022-11-15T15:52:23;6.45;;;4.80;;
43226;SDS011;28839;52.404;9.808;2022-11-15T15:59:17;5.53;;;4.12;;
43226;SDS011;28839;52.404;9.808;2022-11-15T16:06:25;8.97;;;4.20;;
43226;SDS011;28839;52.404;9.808;2022-11-15T16:13:28;6.97;;;5.37;;
43226;SDS011;28839;52.404;9.808;2022-11-15T16:20:32;7.35;;;4.95;;
43226;SDS011;28839;52.404;9.808;2022-11-15T16:27:27;9.48;;;7.07;;
43226;SDS011;28839;52.404;9.808;2022-11-15T16:34:23;9.33;;;6.57;;
43226;SDS011;28839;52.404;9.808;2022-11-15T16:41:17;8.57;;;6.07;;
43226;SDS011;28839;52.404;9.808;2022-11-15T16:48:19;10.75;;;7.32;;
43226;SDS011;28839;52.404;9.808;2022-11-15T16:55:17;10.97;;;7.53;;
43226;SDS011;28839;52.404;9.808;2022-11-15T17:02:11;11.63;;;7.30;;
43226;SDS011;28839;52.404;9.808;2022-11-15T17:16:06;10.95;;;8.13;;
43226;SDS011;28839;52.404;9.808;2022-11-15T17:23:01;13.82;;;9.05;;
43226;SDS011;28839;52.404;9.808;2022-11-15T17:29:55;14.00;;;9.30;;
43226;SDS011;28839;52.404;9.808;2022-11-15T17:36:50;12.20;;;9.60;;
43226;SDS011;28839;52.404;9.808;2022-11-15T17:43:44;17.17;;;10.43;;
43226;SDS011;28839;52.404;9.808;2022-11-15T17:50:39;18.65;;;9.85;;
43226;SDS011;28839;52.404;9.808;2022-11-15T17:57:34;17.50;;;10.63;;
43226;SDS011;28839;52.404;9.808;2022-11-15T18:04:28;16.25;;;9.82;;
43226;SDS011;28839;52.404;9.808;2022-11-15T18:11:22;13.20;;;9.90;;
43226;SDS011;28839;52.404;9.808;2022-11-15T18:18:19;17.42;;;10.05;;
43226;SDS011;28839;52.404;9.808;2022-11-15T18:25:13;15.43;;;9.95;;
43226;SDS011;28839;52.404;9.808;2022-11-15T18:32:07;14.90;;;9.80;;
43226;SDS011;28839;52.404;9.808;2022-11-15T18:39:04;15.65;;;9.80;;
43226;SDS011;28839;52.404;9.808;2022-11-15T18:46:00;13.15;;;8.88;;
43226;SDS011;28839;52.404;9.808;2022-11-15T18:52:56;14.60;;;9.93;;
43226;SDS011;28839;52.404;9.808;2022-11-15T18:59:53;13.62;;;8.90;;
43226;SDS011;28839;52.404;9.808;2022-11-15T19:06:48;12.27;;;8.90;;
43226;SDS011;28839;52.404;9.808;2022-11-15T19:13:42;13.02;;;8.70;;
43226;SDS011;28839;52.404;9.808;2022-11-15T19:27:32;11.38;;;7.97;;
43226;SDS011;28839;52.404;9.808;2022-11-15T19:34:27;10.60;;;8.80;;
43226;SDS011;28839;52.404;9.808;2022-11-15T19:41:22;14.18;;;8.07;;
43226;SDS011;28839;52.404;9.808;2022-11-15T19:48:17;13.48;;;8.05;;
43226;SDS011;28839;52.404;9.808;2022-11-15T19:55:10;13.55;;;7.37;;
43226;SDS011;28839;52.404;9.808;2022-11-15T20:02:07;11.35;;;7.35;;
43226;SDS011;28839;52.404;9.808;2022-11-15T20:09:02;11.60;;;6.75;;
43226;SDS011;28839;52.404;9.808;2022-11-15T20:15:56;11.17;;;7.90;;
43226;SDS011;28839;52.404;9.808;2022-11-15T20:22:52;10.17;;;7.73;;
43226;SDS011;28839;52.404;9.808;2022-11-15T20:29:45;10.80;;;7.07;;
43226;SDS011;28839;52.404;9.808;2022-11-15T20:36:39;13.00;;;7.67;;
43226;SDS011;28839;52.404;9.808;2022-11-15T20:43:35;13.00;;;8.57;;
43226;SDS011;28839;52.404;9.808;2022-11-15T20:50:28;12.15;;;9.02;;
43226;SDS011;28839;52.404;9.808;2022-11-15T20:57:22;9.80;;;7.97;;
43226;SDS011;28839;52.404;9.808;2022-11-15T21:04:18;10.57;;;7.57;;
43226;SDS011;28839;52.404;9.808;2022-11-15T21:11:12;11.10;;;7.05;;
43226;SDS011;28839;52.404;9.808;2022-11-15T21:18:23;8.20;;;6.65;;
43226;SDS011;28839;52.404;9.808;2022-11-15T21:25:18;10.40;;;7.00;;
43226;SDS011;28839;52.404;9.808;2022-11-15T21:32:12;12.63;;;6.65;;
43226;SDS011;28839;52.404;9.808;2022-11-15T21:39:06;12.15;;;7.03;;
43226;SDS011;28839;52.404;9.808;2022-11-15T21:46:03;10.07;;;6.27;;
43226;SDS011;28839;52.404;9.808;2022-11-15T21:52:59;14.87;;;8.52;;
43226;SDS011;28839;52.404;9.808;2022-11-15T21:59:52;12.90;;;6.93;;
43226;SDS011;28839;52.404;9.808;2022-11-15T22:07:05;14.00;;;8.48;;
43226;SDS011;28839;52.404;9.808;2022-11-15T22:13:59;10.07;;;6.47;;
43226;SDS011;28839;52.404;9.808;2022-11-15T22:20:53;10.63;;;6.63;;
43226;SDS011;28839;52.404;9.808;2022-11-15T22:27:49;11.32;;;6.75;;
43226;SDS011;28839;52.404;9.808;2022-11-15T22:34:44;11.80;;;6.95;;
43226;SDS011;28839;52.404;9.808;2022-11-15T22:41:37;9.15;;;7.00;;
43226;SDS011;28839;52.404;9.808;2022-11-15T22:48:33;10.52;;;6.68;;
43226;SDS011;28839;52.404;9.808;2022-11-15T22:55:28;12.05;;;6.93;;
43226;SDS011;28839;52.404;9.808;2022-11-15T23:02:22;11.12;;;7.62;;
43226;SDS011;28839;52.404;9.808;2022-11-15T23:09:17;12.25;;;8.00;;
43226;SDS011;28839;52.404;9.808;2022-11-15T23:16:11;15.25;;;8.55;;
43226;SDS011;28839;52.404;9.808;2022-11-15T23:23:26;13.35;;;8.27;;
43226;SDS011;28839;52.404;9.808;2022-11-15T23:30:21;12.25;;;7.75;;
43226;SDS011;28839;52.404;9.808;2022-11-15T23:37:32;10.95;;;7.65;;
43226;SDS011;28839;52.404;9.808;2022-11-15T23:44:26;10.53;;;7.47;;
43226;SDS011;28839;52.404;9.808;2022-11-15T23:51:22;12.87;;;7.23;;
43226;SDS011;28839;52.404;9.808;2022-11-15T23:58:15;10.75;;;7.72;;
